首页
METAR-TAF:

METAR-TAF

机场 :

Shingle Point, 育康省, 加拿大

纬度: 68-57N, 经度: 137-13W, 海拔: 56米

当前天气观测

该预报发布于28分钟前的22:00 UTC
风速15节,风向东转东北
温度 5°C
湿度 81%
气压 1016 hPa

METAR: CYUA 032200Z AUTO 06015KT ////SM NCD 05/02 A3001

时间: 15:28 (22:28 UTC)


TAF: 丢失

超过4000个机场的气象观测和天气预报(METAR&TAF报告)。

可查询的气象台以黄色和红色小点在地图上表示。

将鼠标移到小点上方,可查看气象台名称。

然后点击查看天气观测和预报。

如需切换地图:点击带黑十字的绿色按钮放大地图;点击带横线的绿色按钮缩小地图;或者点击绿色箭头查看邻近地区的地图。


METAR-TAF: